NULL Weather Reports


Display with metric or nautical units.
time (UTC)temp
F
wind
direction
speed
MPH
gust
MPH
rain 1hr
in
rain 24hr
in
rain mn
in
humidity
%
barometer
mb
20240621150043 64 148 0.0 0.0 0.00 0.00 0.00 84 1008.0
20240621150018 82 222 6.0 11.0 0.00 0.00 0.00 75 1018.3
20240621144533 63 159 0.0 0.0 0.00 0.00 0.00 85 1007.8
20240621144518 82 191 4.0 11.0 0.00 0.00 0.00 76 1018.5
20240621143041 62 288 0.0 0.0 0.00 0.00 0.00 87 1007.9
20240621143014 81 142 4.0 11.0 0.00 0.00 0.00 77 1018.6
20240621141531 61 288 0.0 0.0 0.00 0.00 0.00 89 1007.7
20240621141513 81 191 6.0 13.0 0.00 0.00 0.00 77 1018.7
20240621140037 60 288 0.0 0.0 0.00 0.00 0.00 90 1007.6
20240621140011 80 221 5.0 12.0 0.00 0.00 0.00 77 1019.0
20240621134533 60 288 0.0 0.0 0.00 0.00 0.00 90 1007.4
20240621134508 80 202 2.0 10.0 0.00 0.00 0.00 79 1019.0
20240621133034 59 288 0.0 0.0 0.00 0.00 0.00 90 1007.3
20240621133006 79 206 4.0 9.0 0.00 0.00 0.00 80 1019.0
20240621131534 59 288 0.0 0.0 0.00 0.00 0.00 90 1007.3
20240621131504 78 149 4.0 7.0 0.00 0.00 0.00 81 1019.0
20240621130103 77 175 3.0 7.0 0.00 0.00 0.00 81 1019.0
20240621130028 59 289 0.0 0.0 0.00 0.00 0.00 89 1007.4
20240621124557 75 208 1.0 4.0 0.00 0.00 0.00 82 1019.2
20240621124537 59 289 0.0 0.0 0.00 0.00 0.00 89 1007.2
20240621123056 74 176 0.0 3.0 0.00 0.00 0.00 83 1019.2
20240621123025 59 289 0.0 0.0 0.00 0.00 0.00 89 1007.0
20240621121654 73 186 0.0 0.0 0.00 0.00 0.00 84 1019.0
20240621121523 59 289 0.0 0.0 0.00 0.00 0.00 88 1007.0
20240621120101 72 185 0.0 0.0 0.00 0.00 0.00 83 1019.0
20240621120023 60 289 0.0 0.0 0.00 0.00 0.00 87 1006.8
20240621114552 72 185 0.0 0.0 0.00 0.00 0.00 84 1018.9
20240621114522 60 289 0.0 0.0 0.00 0.00 0.00 88 1006.8
20240621113051 72 185 0.0 0.0 0.00 0.00 0.00 84 1018.8
20240621113021 60 289 0.0 0.0 0.00 0.00 0.00 88 1006.8
20240621111551 71 185 0.0 0.0 0.00 0.00 0.00 84 1018.8
20240621111520 60 289 0.0 0.0 0.00 0.00 0.00 89 1006.8
20240621110053 71 185 0.0 3.0 0.00 0.00 0.00 84 1018.8
20240621110043 60 289 0.0 0.0 0.00 0.00 0.00 88 1006.9
20240621104550 71 185 1.0 3.0 0.00 0.00 0.00 84 1018.7
20240621104520 60 289 0.0 0.0 0.00 0.00 0.00 87 1007.0
20240621103050 71 219 1.0 3.0 0.00 0.00 0.00 84 1018.7
20240621103018 60 289 0.0 0.0 0.00 0.00 0.00 87 1006.9
20240621101557 71 219 0.0 2.0 0.00 0.00 0.00 84 1018.7
20240621101531 60 289 0.0 0.0 0.00 0.00 0.00 87 1007.0
20240621100047 71 219 0.0 0.0 0.00 0.00 0.00 84 1018.6
20240621100022 60 289 0.0 0.0 0.00 0.00 0.00 86 1006.9
20240621094557 71 219 0.0 0.0 0.00 0.00 0.00 83 1018.7
20240621094517 61 289 0.0 0.0 0.00 0.00 0.00 86 1007.0
20240621093051 71 219 0.0 0.0 0.00 0.00 0.00 83 1018.7
20240621093009 61 289 0.0 0.0 0.00 0.00 0.00 85 1007.3
20240621091548 71 219 0.0 0.0 0.00 0.00 0.00 83 1018.8
20240621091512 61 289 0.0 0.0 0.00 0.00 0.00 85 1007.2
20240621090046 72 219 0.0 0.0 0.00 0.00 0.00 83 1018.7
20240621090006 61 289 0.0 0.0 0.00 0.00 0.00 83 1007.2
20240621084541 72 220 0.0 0.0 0.00 0.00 0.00 83 1018.7
20240621084504 61 289 0.0 0.0 0.00 0.00 0.00 83 1007.3
20240621083042 72 219 0.0 0.0 0.00 0.00 0.00 83 1018.8
20240621083002 61 289 0.0 0.0 0.00 0.00 0.00 82 1007.4
20240621081600 62 289 0.0 0.0 0.00 0.00 0.00 82 1007.5
20240621081539 72 219 0.0 0.0 0.00 0.00 0.00 83 1018.9
20240621081501 62 289 0.0 0.0 0.00 0.00 0.00 82 1007.5
20240621080059 62 289 0.0 0.0 0.00 0.00 0.00 81 1007.5
20240621080039 72 219 1.0 4.0 0.00 0.00 0.00 83 1018.8
20240621074558 62 289 0.0 0.0 0.00 0.00 0.00 80 1007.6
20240621074537 72 148 0.0 0.0 0.00 0.00 0.00 83 1019.0
20240621073054 63 289 0.0 0.0 0.00 0.00 0.00 80 1007.7
20240621073042 72 147 0.0 0.0 0.00 0.00 0.00 83 1019.2
20240621071552 63 289 0.0 0.0 0.00 0.00 0.00 79 1007.7
20240621071534 72 147 0.0 0.0 0.00 0.00 0.00 82 1019.3
20240621070050 63 289 0.0 0.0 0.00 0.00 0.00 78 1007.7
20240621070041 73 148 0.0 1.0 0.00 0.00 0.00 83 1019.4
20240621064552 64 289 0.0 0.0 0.00 0.00 0.00 78 1007.8
20240621064532 73 147 0.0 0.0 0.00 0.00 0.00 82 1019.5
20240621063100 64 289 0.0 0.0 0.00 0.00 0.00 77 1008.0
20240621063031 73 148 0.0 0.0 0.00 0.00 0.00 82 1019.6
20240621061555 64 289 0.0 0.0 0.00 0.00 0.00 77 1007.8
20240621061528 73 147 0.0 0.0 0.00 0.00 0.00 82 1019.5
20240621060047 65 289 0.0 0.0 0.00 0.00 0.00 75 1007.8
20240621060027 74 147 0.0 0.0 0.00 0.00 0.00 82 1019.4
20240621054547 65 289 0.0 0.0 0.00 0.00 0.00 75 1007.6
20240621054527 74 147 0.0 0.0 0.00 0.00 0.00 82 1019.5
20240621053052 65 289 0.0 0.0 0.00 0.00 0.00 74 1007.6
20240621053024 74 147 0.0 0.0 0.00 0.00 0.00 81 1019.5
20240621051545 65 289 0.0 0.0 0.00 0.00 0.00 73 1007.6
20240621051521 75 148 0.0 0.0 0.00 0.00 0.00 81 1019.3
20240621050146 66 289 0.0 0.0 0.00 0.00 0.00 73 1007.7
20240621050029 75 148 0.0 0.0 0.00 0.00 0.00 81 1019.4
20240621044543 66 289 0.0 0.0 0.00 0.00 0.00 73 1007.6
20240621044518 76 148 0.0 0.0 0.00 0.00 0.00 81 1019.2
20240621043043 67 291 0.0 0.0 0.00 0.00 0.00 78 1007.3
20240621043018 77 148 0.0 0.0 0.00 0.00 0.00 80 1019.1
20240621041542 68 288 0.0 0.0 0.00 0.00 0.00 77 1007.1
20240621041517 78 148 0.0 2.0 0.00 0.00 0.00 78 1019.0
20240621040055 68 286 0.0 0.0 0.00 0.00 0.00 77 1007.1
20240621040016 78 148 0.0 2.0 0.00 0.00 0.00 77 1018.9
20240621034552 68 215 0.0 0.0 0.00 0.00 0.00 79 1007.0
20240621034517 78 165 1.0 5.0 0.00 0.00 0.00 76 1018.8
20240621033048 68 195 0.0 1.0 0.00 0.00 0.00 78 1006.9
20240621033016 79 144 0.0 3.0 0.00 0.00 0.00 77 1018.8
20240621031549 69 203 0.0 1.0 0.00 0.00 0.00 77 1006.9
20240621031518 79 127 2.0 4.0 0.00 0.00 0.00 75 1018.7
20240621030045 69 180 0.0 0.0 0.00 0.00 0.00 77 1006.9
20240621030015 80 157 0.0 6.0 0.00 0.00 0.00 75 1018.7
20240621024539 70 175 0.0 2.0 0.00 0.00 0.00 75 1006.9
20240621024514 82 118 2.0 5.0 0.00 0.00 0.00 72 1018.5
20240621023043 71 165 0.0 6.0 0.00 0.00 0.00 74 1007.1
20240621023023 82 179 2.0 4.0 0.00 0.00 0.00 68 1018.3
20240621021541 71 178 0.0 3.0 0.00 0.00 0.00 75 1006.8
20240621021513 82 359 2.0 4.0 0.00 0.00 0.00 69 1018.0
20240621020039 72 198 0.0 1.0 0.00 0.00 0.00 74 1006.8
20240621020014 83 183 0.0 2.0 0.00 0.00 0.00 70 1018.0
20240621014536 73 175 0.0 1.0 0.00 0.00 0.00 73 1006.8
20240621014513 83 359 0.0 2.0 0.00 0.00 0.00 68 1018.0
20240621013046 74 202 0.0 1.0 0.00 0.00 0.00 72 1006.8
20240621013017 85 174 0.0 2.0 0.00 0.00 0.00 67 1018.1
20240621011552 74 126 0.0 2.0 0.00 0.00 0.00 70 1006.7
20240621011511 85 176 1.0 6.0 0.00 0.00 0.00 64 1018.0
20240621010034 75 184 0.0 2.0 0.00 0.00 0.00 69 1006.7
20240621010010 86 158 0.0 6.0 0.00 0.00 0.00 63 1018.1
20240621004533 75 199 0.0 1.0 0.00 0.00 0.00 69 1006.8
20240621004510 87 167 2.0 6.0 0.00 0.00 0.00 62 1018.1
20240621003036 76 175 0.0 3.0 0.00 0.00 0.00 68 1006.9
20240621003012 87 201 4.0 10.0 0.00 0.00 0.00 60 1018.1
20240621001543 75 180 0.0 2.0 0.00 0.00 0.00 68 1007.0
20240621001512 88 221 4.0 10.0 0.00 0.00 0.00 59 1018.2
20240621000027 75 173 0.0 4.0 0.00 0.00 0.00 67 1007.1
20240621000006 88 170 4.0 8.0 0.00 0.00 0.00 59 1018.2
20240620234526 75 207 0.0 3.0 0.00 0.00 0.00 67 1007.3
20240620234504 88 198 3.0 5.0 0.00 0.00 0.00 62 1018.2
20240620233024 75 163 0.0 1.0 0.00 0.00 0.00 67 1007.4
20240620233004 87 171 3.0 9.0 0.00 0.00 0.00 61 1018.2
20240620231541 76 160 0.0 4.0 0.00 0.00 0.00 66 1007.5
20240620231507 86 205 2.0 7.0 0.00 0.00 0.00 65 1018.3
20240620230022 76 93 0.0 1.0 0.00 0.00 0.00 67 1007.7
20240620230004 86 138 2.0 8.0 0.00 0.00 0.00 68 1018.3
20240620224608 86 79 6.0 9.0 0.00 0.08 0.00 66 1018.7
20240620224535 77 211 0.0 1.0 0.00 0.00 0.00 66 1007.7
20240620223057 86 102 2.0 9.0 0.00 0.08 0.00 68 1018.9
20240620223030 77 107 0.0 3.0 0.00 0.00 0.00 66 1007.9
20240620221555 84 110 2.0 5.0 0.00 0.08 0.00 70 1019.0
20240620221520 77 226 0.0 2.0 0.00 0.00 0.00 65 1008.2
20240620220054 83 151 2.0 7.0 0.00 0.08 0.00 71 1019.3
20240620220021 77 158 0.0 1.0 0.00 0.00 0.00 64 1008.3
20240620214552 87 135 7.0 12.0 0.00 0.34 0.00 64 1019.6
20240620214517 76 207 0.0 1.0 0.00 0.00 0.00 66 1008.5
20240620213053 89 170 5.0 8.0 0.00 0.34 0.00 59 1019.6
20240620213013 77 194 0.0 7.0 0.00 0.00 0.00 66 1008.5
20240620211549 89 214 5.0 10.0 0.00 0.34 0.00 58 1019.7
20240620211512 77 200 0.0 1.0 0.00 0.00 0.00 66 1008.8
20240620210048 88 218 2.0 5.0 0.00 0.34 0.00 62 1019.8
20240620210009 77 230 0.0 2.0 0.00 0.00 0.00 65 1009.1
20240620204546 88 165 5.0 10.0 0.00 0.36 0.00 59 1019.9
20240620204504 77 170 0.0 5.0 0.00 0.00 0.00 65 1009.2
20240620203045 89 215 4.0 7.0 0.00 0.36 0.00 58 1020.1
20240620203003 76 212 0.0 1.0 0.00 0.00 0.00 66 1009.3
20240620201542 89 181 3.0 9.0 0.00 0.36 0.00 59 1020.3
20240620201501 76 193 0.0 2.0 0.00 0.00 0.00 66 1009.4
20240620200102 76 175 0.0 3.0 0.00 0.00 0.00 67 1009.6
20240620200042 90 178 5.0 8.0 0.00 0.36 0.00 58 1020.5
20240620194552 76 196 0.0 1.0 0.00 0.00 0.00 67 1009.4
20240620194537 88 131 3.0 9.0 0.00 0.41 0.00 61 1020.6
20240620193048 76 256 0.0 2.0 0.00 0.00 0.00 69 1009.6
20240620193036 88 168 2.0 10.0 0.00 0.41 0.00 59 1020.7
20240620191549 75 184 0.0 0.0 0.00 0.00 0.00 69 1009.8
20240620191535 88 145 2.0 10.0 0.00 0.41 0.00 61 1020.8
20240620190046 75 124 0.0 1.0 0.00 0.00 0.00 68 1009.8
20240620190033 88 212 7.0 11.0 0.00 0.41 0.00 61 1021.2
20240620184537 74 200 0.0 2.0 0.00 0.00 0.00 70 1009.7
20240620184535 88 218 4.0 8.0 0.00 0.64 0.00 62 1021.3
20240620183032 74 126 0.0 1.0 0.00 0.00 0.00 70 1010.0
20240620183028 87 214 6.0 10.0 0.00 0.64 0.00 62 1021.5
20240620181529 73 175 0.0 1.0 0.00 0.00 0.00 72 1010.1
20240620181526 86 232 6.0 10.0 0.00 0.64 0.00 65 1021.6
20240620180029 86 235 2.0 8.0 0.00 0.64 0.00 67 1021.6
20240620174527 73 273 0.0 4.0 0.00 0.00 0.00 71 1009.9
20240620174523 86 162 6.0 11.0 0.00 1.17 0.00 67 1021.7
20240620173026 73 200 0.0 1.0 0.00 0.00 0.00 72 1009.8
20240620173021 86 159 5.0 10.0 0.00 1.17 0.00 67 1021.9
20240620171526 72 190 0.0 0.0 0.00 0.00 0.00 74 1009.8
20240620171518 85 240 4.0 8.0 0.00 1.17 0.00 70 1021.9
20240620170033 84 270 6.0 11.0 0.00 1.17 0.00 70 1021.9
20240620170017 71 183 0.0 0.0 0.00 0.00 0.00 75 1009.6
20240620164515 71 153 0.0 0.0 0.00 0.00 0.00 75 1009.5
20240620164513 84 253 5.0 10.0 0.00 1.33 0.00 71 1022.0
20240620163012 83 270 4.0 11.0 0.00 1.33 0.00 73 1021.9
20240620163009 69 148 0.0 0.0 0.00 0.00 0.00 79 1009.5
20240620161509 83 206 4.0 10.0 0.00 1.33 0.00 73 1021.9
20240620161505 68 161 0.0 0.0 0.00 0.00 0.00 82 1009.4
20240620160007 83 195 5.0 11.0 0.00 1.33 0.00 74 1021.9
20240620160002 66 172 0.0 0.0 0.00 0.00 0.00 84 1009.4
20240620154503 82 212 6.0 13.0 0.00 1.33 0.00 75 1022.0
20240620153105 66 171 0.0 0.0 0.00 0.00 0.00 84 1009.6
20240620153001 81 164 6.0 10.0 0.00 1.33 0.00 76 1022.0
20240620151616 80 111 4.0 10.0 0.00 1.33 0.00 78 1022.1
20240620151557 65 165 0.0 0.0 0.00 0.00 0.00 84 1009.5